Terminal Aerodrome Forecast
Issued by NWS

Home | Current Version | Previous Version | Graphics & Text | Print | Product List | Glossary On
Versions: 1 2 3 4 5 6 7 8 9 10 11 12 13 14 15 16 17 18 19 20 21 22
000
FTUS43 KGRB 270520
TAFAUW
TAF
KAUW 270520Z 2706/2806 33003KT 6SM BR OVC006
      TEMPO 2706/2708 5SM BR SCT006 OVC015
     FM270800 VRB03KT 5SM BR OVC005
     FM271500 01004KT 6SM BR OVC007
     FM272100 02003KT 6SM BR OVC013=

USA.gov is the U.S. government's official web portal to all federal, state and local government web resources and services.